Terminal Aerodrome Forecast
Issued by NWS Northern Indiana

Home | Current Version | Previous Version | Graphics & Text | Print | Product List | Glossary On
Versions: 1 2 3 4 5 6 7 8 9 10 11 12 13 14 15
018
FTUS43 KIWX 282328
TAFFWA
TAF
KFWA 282328Z 2900/2924 02005KT P6SM VCSH SCT050 BKN120
      TEMPO 2900/2902 6SM -SHRA BR BKN050
     FM290200 06004KT P6SM FEW050 BKN150
     FM290800 06004KT 4SM BR BKN200
     FM291200 07005KT P6SM BKN150
     FM292100 06006KT P6SM VCSH BKN050=

USA.gov is the U.S. government's official web portal to all federal, state and local government web resources and services.